createdAt,value
2023-02-13T07:57:16.746Z,6.35
2023-02-13T07:59:45.605Z,6.48
2023-02-13T08:02:15.341Z,6.65
2023-02-13T08:04:46.322Z,6.69
2023-02-13T08:07:17.135Z,6.67
2023-02-13T08:10:05.996Z,6.95
2023-02-13T08:12:36.046Z,7.09
2023-02-13T08:15:05.479Z,7.06
2023-02-13T08:17:32.771Z,7.13
2023-02-13T08:20:00.148Z,6.98
2023-02-13T08:22:27.509Z,7.18
2023-02-13T08:24:54.822Z,7.27
2023-02-13T08:27:23.053Z,7.57
2023-02-13T08:29:53.834Z,7.64
2023-02-13T08:32:21.181Z,7.50
2023-02-13T08:34:48.518Z,7.64
2023-02-13T08:37:16.732Z,7.87
2023-02-13T08:39:44.698Z,7.92
2023-02-13T08:42:15.674Z,7.97
2023-02-13T08:44:44.285Z,7.98
2023-02-13T08:47:11.869Z,8.05
2023-02-13T08:49:39.193Z,8.50
2023-02-13T08:52:06.556Z,8.50
2023-02-13T08:54:36.152Z,8.66
2023-02-13T08:57:03.982Z,8.65
2023-02-13T08:59:31.397Z,9.89
2023-02-13T09:01:58.964Z,8.92
2023-02-13T09:04:26.353Z,8.84
2023-02-13T09:06:53.912Z,9.20
2023-02-13T09:09:21.313Z,9.42
2023-02-13T09:11:48.682Z,9.40
2023-02-13T09:14:16.026Z,9.37
2023-02-13T09:16:43.387Z,9.76
2023-02-13T09:19:10.714Z,9.36
2023-02-13T09:21:38.028Z,9.70
2023-02-13T09:24:10.456Z,9.88
2023-02-13T09:26:37.934Z,10.03
2023-02-13T09:29:05.262Z,10.20
2023-02-13T09:31:32.662Z,10.49
2023-02-13T09:34:00.030Z,10.49
2023-02-13T09:36:27.360Z,10.81
2023-02-13T09:38:57.691Z,10.85
2023-02-13T09:41:40.973Z,11.02
2023-02-13T09:44:44.710Z,10.96
2023-02-13T09:47:37.233Z,10.97
2023-02-13T09:50:28.634Z,11.08
2023-02-13T09:52:58.494Z,11.07
2023-02-13T09:56:16.380Z,11.28
2023-02-13T09:59:12.504Z,11.46
2023-02-13T10:01:50.541Z,11.51
2023-02-13T10:05:02.087Z,11.60
2023-02-13T10:08:12.819Z,12.16
2023-02-13T10:11:41.138Z,12.31
2023-02-13T10:15:05.422Z,12.12
2023-02-13T10:18:06.468Z,12.41
2023-02-13T10:20:52.768Z,12.56
2023-02-13T10:23:50.180Z,12.68
2023-02-13T10:26:42.709Z,12.74
2023-02-13T10:29:42.513Z,12.86
2023-02-13T10:32:17.234Z,12.80
2023-02-13T10:34:47.091Z,13.26
2023-02-13T10:37:21.421Z,13.50
2023-02-13T10:39:54.124Z,13.28
2023-02-13T10:42:42.130Z,13.50
2023-02-13T10:46:31.382Z,13.81
2023-02-13T10:49:17.837Z,14.27
2023-02-13T10:52:33.713Z,14.00
2023-02-13T10:55:30.570Z,13.82
2023-02-13T10:58:20.850Z,14.34
2023-02-13T11:01:13.598Z,14.73
2023-02-13T11:03:41.209Z,14.64
2023-02-13T11:06:18.142Z,14.69
2023-02-13T11:08:48.214Z,14.71
2023-02-13T11:11:39.066Z,15.18
2023-02-13T11:14:20.694Z,14.93
2023-02-13T11:17:09.740Z,15.49
2023-02-13T11:19:56.157Z,15.49
2023-02-13T11:22:42.709Z,15.86
2023-02-13T11:25:30.110Z,15.54
2023-02-13T11:28:21.208Z,15.93
2023-02-13T11:30:49.081Z,15.99
2023-02-13T11:33:28.654Z,16.45
2023-02-13T11:36:31.872Z,16.18
2023-02-13T11:39:17.757Z,16.08
2023-02-13T11:41:50.884Z,16.20
2023-02-13T11:44:31.285Z,16.48
2023-02-13T11:47:03.225Z,16.85
2023-02-13T11:49:39.461Z,16.81
2023-02-13T11:52:31.027Z,16.97
2023-02-13T11:55:31.448Z,16.83
2023-02-13T11:58:12.165Z,17.20
2023-02-13T12:00:42.494Z,17.41
2023-02-13T12:03:31.980Z,17.00
2023-02-13T12:06:15.869Z,17.07
2023-02-13T12:08:49.288Z,17.48
2023-02-13T12:11:42.190Z,17.68
2023-02-13T12:14:28.573Z,17.55
2023-02-13T12:17:29.211Z,17.84
2023-02-13T12:19:58.304Z,17.72
2023-02-13T12:22:41.962Z,17.78
2023-02-13T12:25:33.412Z,17.88
2023-02-13T12:28:43.931Z,18.09
2023-02-13T12:32:20.800Z,17.82
2023-02-13T12:35:34.028Z,18.19
2023-02-13T12:39:13.933Z,18.28
2023-02-13T12:42:51.947Z,18.55
2023-02-13T12:45:53.797Z,18.73
2023-02-13T12:48:58.429Z,18.75
2023-02-13T12:52:13.516Z,18.46
2023-02-13T12:55:27.344Z,18.62
2023-02-13T12:58:25.507Z,18.97
2023-02-13T13:01:57.836Z,18.99
2023-02-13T13:05:05.102Z,18.93
2023-02-13T13:07:54.777Z,18.79
2023-02-13T13:11:20.558Z,18.56
2023-02-13T13:14:42.228Z,18.83
2023-02-13T13:17:58.733Z,18.98
2023-02-13T13:20:52.338Z,18.88
2023-02-13T13:23:41.670Z,19.28
2023-02-13T13:26:43.677Z,19.15
2023-02-13T13:29:36.544Z,19.16
2023-02-13T13:32:13.749Z,18.72
2023-02-13T13:34:41.504Z,18.75
2023-02-13T13:37:48.101Z,18.37
2023-02-13T13:40:58.124Z,18.65
2023-02-13T13:44:03.191Z,18.19
2023-02-13T13:47:05.770Z,18.40
2023-02-13T13:49:58.585Z,18.07
2023-02-13T13:52:39.876Z,17.73
2023-02-13T13:55:29.573Z,18.21
2023-02-13T13:58:02.808Z,17.54
2023-02-13T14:00:31.378Z,17.40
2023-02-13T14:03:34.629Z,17.32
2023-02-13T14:06:22.026Z,16.51
2023-02-13T14:08:49.637Z,17.15
2023-02-13T14:11:47.249Z,16.64
2023-02-13T14:14:30.587Z,16.52
2023-02-13T14:17:04.220Z,16.11
2023-02-13T14:19:40.056Z,16.00
2023-02-13T14:22:19.482Z,16.07
2023-02-13T14:24:55.678Z,15.99
2023-02-13T14:27:40.784Z,16.12
2023-02-13T14:30:40.393Z,15.95
2023-02-13T14:33:31.755Z,15.65
2023-02-13T14:36:23.148Z,15.96
2023-02-13T14:39:20.969Z,16.00
2023-02-13T14:41:54.157Z,16.02
2023-02-13T14:44:50.043Z,15.77
2023-02-13T14:47:42.917Z,15.56
2023-02-13T14:50:45.884Z,15.42
2023-02-13T14:53:32.825Z,15.45
2023-02-13T14:56:13.739Z,15.42
2023-02-13T14:59:11.010Z,15.47
2023-02-13T15:02:31.115Z,15.29
2023-02-13T15:05:20.196Z,15.28
2023-02-13T15:08:28.404Z,15.22
2023-02-13T15:10:57.712Z,15.31
2023-02-13T15:13:37.459Z,15.16
2023-02-13T15:16:12.807Z,15.29
2023-02-13T15:18:52.823Z,15.03
2023-02-13T15:21:33.081Z,15.03
2023-02-13T15:24:00.467Z,15.00
2023-02-13T15:26:29.207Z,15.06
2023-02-13T15:29:27.924Z,15.15
2023-02-13T15:31:59.755Z,14.95
2023-02-13T15:34:36.078Z,15.07
2023-02-13T15:37:03.936Z,14.98
2023-02-13T15:39:32.849Z,15.17
2023-02-13T15:42:03.177Z,15.19
2023-02-13T15:44:38.543Z,15.19
2023-02-13T15:47:17.402Z,15.36
2023-02-13T15:49:47.816Z,15.46
2023-02-13T15:52:37.875Z,15.60
2023-02-13T15:55:06.098Z,15.42
2023-02-13T15:57:34.091Z,15.57
2023-02-13T16:00:02.967Z,15.69
2023-02-13T16:02:47.525Z,15.73
2023-02-13T16:05:19.999Z,15.69
2023-02-13T16:07:59.162Z,15.62
2023-02-13T16:10:37.256Z,15.75
2023-02-13T16:13:16.588Z,15.52
2023-02-13T16:15:44.682Z,15.51
2023-02-13T16:18:21.017Z,15.70
2023-02-13T16:20:56.469Z,15.73
2023-02-13T16:23:24.252Z,15.71
2023-02-13T16:25:52.122Z,15.61
2023-02-13T16:28:27.338Z,15.40
2023-02-13T16:31:03.218Z,15.15
2023-02-13T16:33:33.993Z,15.06
2023-02-13T16:36:29.542Z,14.66
2023-02-13T16:38:56.867Z,14.89
2023-02-13T16:41:26.743Z,14.64
2023-02-13T16:43:58.204Z,14.50
2023-02-13T16:46:38.016Z,14.55
2023-02-13T16:49:09.602Z,14.38
2023-02-13T16:52:12.299Z,14.21
2023-02-13T16:54:59.898Z,14.27
2023-02-13T16:57:34.531Z,14.22
2023-02-13T17:00:24.474Z,13.98
2023-02-13T17:02:52.803Z,14.13
2023-02-13T17:05:24.662Z,14.04
2023-02-13T17:08:01.408Z,13.85
2023-02-13T17:10:37.495Z,14.08
2023-02-13T17:13:20.127Z,13.84
2023-02-13T17:15:48.866Z,13.34
2023-02-13T17:18:16.205Z,13.63
2023-02-13T17:20:45.180Z,13.51
2023-02-13T17:23:22.538Z,13.47
2023-02-13T17:25:52.682Z,13.34
2023-02-13T17:28:27.787Z,13.42
2023-02-13T17:30:58.740Z,13.33
2023-02-13T17:33:34.684Z,13.17
2023-02-13T17:36:01.975Z,12.78
2023-02-13T17:38:29.305Z,12.76
2023-02-13T17:40:56.993Z,12.72
2023-02-13T17:43:26.889Z,12.67
2023-02-13T17:45:54.237Z,12.42
2023-02-13T17:48:21.670Z,12.32
2023-02-13T17:50:51.110Z,12.71
2023-02-13T17:53:30.213Z,12.59
2023-02-13T17:55:58.586Z,12.51
2023-02-13T17:58:26.042Z,12.28
2023-02-13T18:00:53.773Z,12.14
2023-02-13T18:03:22.289Z,12.03
2023-02-13T18:05:50.355Z,12.31
2023-02-13T18:08:17.799Z,12.38
2023-02-13T18:10:45.110Z,12.16
2023-02-13T18:13:12.503Z,12.23
2023-02-13T18:15:44.851Z,12.04
2023-02-13T18:18:16.183Z,11.96
2023-02-13T18:20:44.729Z,11.87
2023-02-13T18:23:12.034Z,11.82
2023-02-13T18:25:39.353Z,11.86
2023-02-13T18:28:06.729Z,11.66
2023-02-13T18:30:34.161Z,11.58
2023-02-13T18:33:05.009Z,11.53
2023-02-13T18:35:33.388Z,11.48
2023-02-13T18:38:00.849Z,11.34
2023-02-13T18:40:28.148Z,11.40
2023-02-13T18:42:55.462Z,11.42
2023-02-13T18:45:22.742Z,11.16
2023-02-13T18:47:50.062Z,11.14
2023-02-13T18:50:17.478Z,11.09
2023-02-13T18:52:44.906Z,11.22
2023-02-13T18:55:12.264Z,11.06
2023-02-13T18:57:43.365Z,11.17
2023-02-13T19:00:13.979Z,11.17
2023-02-13T19:02:41.332Z,11.25
2023-02-13T19:05:08.882Z,10.95
2023-02-13T19:07:36.765Z,10.99
2023-02-13T19:10:04.486Z,10.82
2023-02-13T19:12:31.839Z,11.08
2023-02-13T19:14:59.151Z,10.98
2023-02-13T19:17:26.562Z,11.02
2023-02-13T19:19:55.788Z,10.80
2023-02-13T19:22:23.117Z,10.81
2023-02-13T19:24:50.912Z,10.89
2023-02-13T19:27:18.645Z,10.76
2023-02-13T19:29:47.535Z,10.68
2023-02-13T19:32:14.889Z,10.64
2023-02-13T19:34:42.443Z,10.58
2023-02-13T19:37:09.738Z,10.56
2023-02-13T19:39:37.125Z,10.54
2023-02-13T19:42:04.696Z,10.77
2023-02-13T19:44:31.998Z,10.37
2023-02-13T19:46:59.304Z,10.52
2023-02-13T19:49:26.611Z,10.53
2023-02-13T19:51:53.893Z,10.55
2023-02-13T19:54:22.064Z,10.47
2023-02-13T19:56:49.456Z,10.52
2023-02-13T19:59:16.762Z,10.30
2023-02-13T20:01:44.278Z,10.23
2023-02-13T20:04:12.155Z,10.28
2023-02-13T20:06:40.030Z,10.33
2023-02-13T20:09:14.471Z,10.36
2023-02-13T20:11:43.748Z,10.03
2023-02-13T20:14:15.134Z,10.01
2023-02-13T20:16:45.604Z,10.02
2023-02-13T20:19:13.922Z,9.88
2023-02-13T20:21:42.837Z,9.88
2023-02-13T20:24:11.973Z,9.91
2023-02-13T20:26:40.281Z,9.88
2023-02-13T20:29:09.358Z,9.93
2023-02-13T20:31:39.497Z,9.83
2023-02-13T20:34:08.088Z,9.84
2023-02-13T20:36:35.756Z,9.73
2023-02-13T20:39:07.655Z,9.54
2023-02-13T20:41:37.756Z,9.58
2023-02-13T20:44:11.775Z,9.76
2023-02-13T20:46:40.373Z,9.83
2023-02-13T20:49:10.058Z,9.93
2023-02-13T20:51:37.499Z,9.69
2023-02-13T20:54:05.858Z,9.61
2023-02-13T20:56:33.189Z,9.54
2023-02-13T20:59:02.573Z,9.69
2023-02-13T21:01:41.285Z,9.60
2023-02-13T21:04:11.272Z,9.59
2023-02-13T21:06:41.581Z,9.49
2023-02-13T21:09:09.938Z,9.35
2023-02-13T21:11:43.177Z,9.50
2023-02-13T21:14:14.360Z,9.19
2023-02-13T21:16:42.918Z,9.22
2023-02-13T21:19:19.229Z,9.26
2023-02-13T21:21:47.596Z,9.42
2023-02-13T21:24:22.777Z,9.05
2023-02-13T21:26:52.718Z,9.21
2023-02-13T21:29:20.292Z,9.19
2023-02-13T21:31:48.036Z,9.11
2023-02-13T21:34:17.953Z,9.12
2023-02-13T21:36:46.069Z,9.03
2023-02-13T21:39:13.842Z,9.04
2023-02-13T21:41:45.684Z,9.06
2023-02-13T21:44:15.491Z,8.82
2023-02-13T21:46:45.186Z,8.97
2023-02-13T21:49:18.079Z,9.10
2023-02-13T21:51:47.050Z,9.20
2023-02-13T21:54:14.938Z,9.05
2023-02-13T21:56:44.157Z,9.08
2023-02-13T21:59:16.727Z,9.00
2023-02-13T22:01:54.026Z,9.02
2023-02-13T22:04:21.887Z,8.71
2023-02-13T22:06:52.521Z,8.74
